createdAt,value
2022-12-08T00:08:38.704Z,-0.77
2022-12-08T00:18:40.408Z,-0.78
2022-12-08T00:28:42.104Z,-0.71
2022-12-08T00:38:44.941Z,-0.64
2022-12-08T00:48:48.606Z,-0.54
2022-12-08T00:58:50.901Z,-0.42
2022-12-08T01:08:52.586Z,-0.81
2022-12-08T01:18:55.452Z,-0.85
2022-12-08T01:29:01.819Z,-1.10
2022-12-08T01:39:07.420Z,-1.18
2022-12-08T01:49:11.802Z,-1.42
2022-12-08T01:59:13.902Z,-1.63
2022-12-08T02:09:18.791Z,-1.76
2022-12-08T02:19:48.037Z,-1.76
2022-12-08T02:30:24.236Z,-1.85
2022-12-08T02:40:36.896Z,-1.75
2022-12-08T02:50:38.803Z,-1.57
2022-12-08T03:00:54.836Z,-1.35
2022-12-08T03:11:04.474Z,-1.16
2022-12-08T03:21:07.564Z,-1.35
2022-12-08T03:31:13.151Z,-1.27
2022-12-08T03:41:19.514Z,-1.21
2022-12-08T03:51:21.843Z,-1.22
2022-12-08T04:01:24.440Z,-0.88
2022-12-08T04:11:26.180Z,-0.59
2022-12-08T04:21:29.058Z,-0.67
2022-12-08T04:31:33.880Z,-0.47
2022-12-08T04:41:37.568Z,-0.38
2022-12-08T04:51:39.450Z,-0.21
2022-12-08T05:01:41.199Z,-0.49
2022-12-08T05:11:49.293Z,-0.29
2022-12-08T05:21:51.161Z,-0.53
2022-12-08T05:31:52.981Z,-0.38
2022-12-08T05:41:54.666Z,-0.13
2022-12-08T05:52:02.210Z,-0.24
2022-12-08T06:02:03.975Z,-0.16
2022-12-08T06:12:06.214Z,-0.15
2022-12-08T06:22:09.090Z,-0.04
2022-12-08T06:32:15.080Z,0.14
2022-12-08T06:42:35.571Z,0.28
2022-12-08T06:52:45.640Z,0.28
2022-12-08T07:02:53.460Z,0.51
2022-12-08T07:13:03.526Z,0.76
2022-12-08T07:23:07.329Z,0.67
2022-12-08T07:33:09.152Z,1.01
2022-12-08T07:43:14.849Z,1.03
2022-12-08T07:53:16.475Z,1.47
2022-12-08T08:03:18.279Z,1.49
2022-12-08T08:13:20.927Z,2.34
2022-12-08T08:23:22.765Z,2.62
2022-12-08T08:33:26.279Z,3.12
2022-12-08T08:43:37.619Z,3.31
2022-12-08T08:53:42.550Z,3.80
2022-12-08T09:03:44.924Z,3.94
2022-12-08T09:13:51.743Z,3.87
2022-12-08T09:23:56.656Z,3.62
2022-12-08T09:33:59.550Z,3.38
2022-12-08T09:44:13.346Z,3.30
2022-12-08T09:54:22.812Z,3.80
2022-12-08T10:04:43.003Z,3.97
2022-12-08T10:14:57.207Z,4.36
2022-12-08T10:25:11.842Z,4.13
2022-12-08T10:35:18.125Z,4.50
2022-12-08T10:45:38.658Z,4.85
2022-12-08T10:55:49.481Z,4.71
2022-12-08T11:05:55.656Z,5.01
2022-12-08T11:16:01.750Z,4.73
2022-12-08T11:26:23.820Z,4.40
2022-12-08T11:36:29.940Z,4.36
2022-12-08T11:46:40.976Z,4.18
2022-12-08T11:56:54.169Z,4.11
2022-12-08T12:07:33.047Z,4.33
2022-12-08T12:17:53.396Z,4.27
2022-12-08T12:28:06.913Z,4.26
2022-12-08T12:38:40.779Z,4.34
2022-12-08T12:48:43.490Z,4.23
2022-12-08T12:58:49.288Z,4.06
2022-12-08T13:08:56.371Z,3.98
2022-12-08T13:19:03.814Z,3.89
2022-12-08T13:29:20.519Z,3.83
2022-12-08T13:39:35.825Z,3.65
2022-12-08T14:00:15.928Z,3.64
2022-12-08T14:10:24.779Z,3.49
2022-12-08T14:20:29.787Z,3.24
2022-12-08T14:30:32.925Z,3.12
2022-12-08T14:40:38.276Z,2.91
2022-12-08T14:50:44.681Z,3.16
2022-12-08T15:00:52.687Z,3.05
2022-12-08T15:11:33.590Z,3.02
2022-12-08T15:21:40.328Z,2.98
2022-12-08T15:31:43.399Z,2.70
2022-12-08T15:41:45.053Z,3.12
2022-12-08T15:51:47.576Z,3.00
2022-12-08T16:01:50.731Z,2.71
2022-12-08T16:12:11.952Z,2.84
2022-12-08T16:32:46.941Z,2.78
2022-12-08T16:42:50.547Z,2.69
2022-12-08T16:53:06.151Z,2.77
2022-12-08T17:03:09.163Z,2.72
2022-12-08T17:13:13.099Z,2.75
2022-12-08T17:23:21.259Z,2.54
2022-12-08T17:33:27.644Z,2.72
2022-12-08T17:43:31.798Z,2.46
2022-12-08T17:53:40.868Z,2.65
2022-12-08T18:03:45.725Z,2.64
2022-12-08T18:13:48.795Z,2.64
2022-12-08T18:23:51.066Z,2.72
2022-12-08T18:33:55.174Z,2.76
2022-12-08T18:43:58.600Z,2.82
2022-12-08T18:54:01.535Z,2.50
2022-12-08T19:14:30.832Z,2.69
2022-12-08T19:24:36.910Z,2.76
2022-12-08T19:34:39.759Z,2.66
2022-12-08T19:44:55.292Z,2.39
2022-12-08T19:54:59.717Z,2.64
2022-12-08T20:05:02.756Z,2.57
2022-12-08T20:15:12.007Z,2.41
2022-12-08T20:25:20.806Z,2.48
2022-12-08T20:35:23.766Z,2.38
2022-12-08T20:45:29.586Z,2.35
2022-12-08T20:55:36.414Z,2.18
2022-12-08T21:05:42.447Z,2.13
2022-12-08T21:15:49.166Z,2.13
2022-12-08T21:25:51.210Z,2.13
2022-12-08T21:36:08.207Z,2.23
2022-12-08T21:46:20.846Z,2.17
2022-12-08T21:56:23.839Z,2.08
2022-12-08T22:06:25.796Z,2.03
2022-12-08T22:16:36.136Z,2.15
2022-12-08T22:26:45.064Z,2.17
2022-12-08T22:36:49.126Z,2.21
2022-12-08T22:46:57.259Z,2.17
2022-12-08T22:57:00.133Z,2.09
2022-12-08T23:07:04.238Z,2.08
2022-12-08T23:17:06.127Z,2.09
2022-12-08T23:27:08.277Z,2.03
2022-12-08T23:37:12.234Z,2.01
2022-12-08T23:47:14.336Z,1.97
2022-12-08T23:57:19.539Z,1.92
